ZLXY METAR and TAF | Updated Today

ZLXY METAR

Xi'an Xianyang International Airport

Observation time: 62 min. ago

ZLXY 010700Z 06004MPS 2800 BR FEW010 SCT026 OVC040 20/19 Q1009 BECMG TL0750 3000

Need help? Read our tutorial on how to read METARs or read the parsed version below.

Xi'an Xianyang International Airport (ZLXY) METAR

  • Weather conditions on Sat, 01 Oct 2022 07:00:00 +0000 (62 min. ago):
  • Present conditions: Mist
  • Clouds: A few at 305 meters; scattered at 792 meters; overcast sky at 1219 meters
  • Visibility: 2800 meters
  • Wind: 60 degrees at 4 knots
  • Temperature: 20 celsius
  • Dew point: 19 celsius
  • Pressure: 1009 millibars
  • Remarks: None


Useful to know...

ZLXY TAF

Xi'an Xianyang International Airport

TAF ZLXY 010315Z 0106/0206 06003MPS 3000 -RA BR FEW010 OVC060 TX22/0108Z TN19/0122Z BECMG 0109/0110 BR
Observation time: 4:47 hr. ago
Need help? Read our tutorial on how to read TAFs or read the parsed version below.

Parsed version of TAF for Xi'an Xianyang International Airport (ZLXY)

  • From 01 October at 06:00 UTC, to day 02 of the month at 06:00 UTC
  • Clouds: A few at 305 meters; overcast sky at 1829 meters
  • Visibility: 3000 meters
  • Wind: 60 degrees at 3
  • Other: Light rain; mist
  • Expected to arise soon, from 01 October at 09:00 UTC, to day 01 of the month at 10:00 UTC
  • Other: Mist